Time;durP1;ratioP1;P1;durP2;ratioP2;P2;SDS_P1;SDS_P2;PMS_P1;PMS_P2;Temp;Humidity;BMP_temperature;BMP_pressure;BME280_temperature;BME280_humidity;BME280_pressure;Samples;Min_cycle;Max_cycle;Signal;HPM_P1;HPM_P2
2023/10/08 00:00:55;;;;;;;6.50;2.97;;;15.50;99.90;;;;;;4863968;29;20174;-71
2023/10/08 00:03:21;;;;;;;5.18;2.60;;;15.50;99.90;;;;;;4864012;29;20178;-72
2023/10/08 00:05:49;;;;;;;4.28;2.33;;;15.40;99.90;;;;;;4863805;29;20700;-74
2023/10/08 00:08:16;;;;;;;4.07;2.60;;;15.50;99.90;;;;;;4863931;29;20177;-72
2023/10/08 00:10:44;;;;;;;4.00;2.88;;;15.50;99.90;;;;;;4863796;29;20197;-72
2023/10/08 00:13:11;;;;;;;6.38;3.05;;;15.40;99.90;;;;;;4863693;29;20185;-72
2023/10/08 00:15:49;;;;;;;5.03;2.72;;;15.40;99.90;;;;;;4863505;29;20186;-73
2023/10/08 00:18:15;;;;;;;6.45;2.80;;;15.40;99.90;;;;;;4848879;29;20178;-72
2023/10/08 00:23:35;;;;;;;3.40;2.65;;;15.40;99.90;;;;;;4834564;29;20605;-72
2023/10/08 00:26:04;;;;;;;5.57;3.05;;;15.40;99.90;;;;;;4863362;29;20625;-72
2023/10/08 00:28:31;;;;;;;3.85;2.88;;;15.40;99.90;;;;;;4863569;29;20517;-73
2023/10/08 00:31:03;;;;;;;3.90;2.70;;;15.40;99.90;;;;;;4863426;29;20194;-72
2023/10/08 00:33:31;;;;;;;3.72;2.95;;;15.40;99.90;;;;;;4863290;29;20719;-73
2023/10/08 00:35:56;;;;;;;4.88;3.15;;;15.40;99.90;;;;;;4863385;29;20209;-72
2023/10/08 00:38:25;;;;;;;6.72;2.85;;;15.30;99.90;;;;;;4863253;29;20305;-72
2023/10/08 00:40:55;;;;;;;5.65;3.10;;;15.30;99.90;;;;;;4863284;29;20182;-73
2023/10/08 00:43:35;;;;;;;4.13;2.97;;;15.40;99.90;;;;;;4863272;29;20310;-72
2023/10/08 00:46:22;;;;;;;3.60;2.65;;;15.40;99.90;;;;;;4863301;29;20178;-74
2023/10/08 00:48:49;;;;;;;4.82;3.13;;;15.40;99.90;;;;;;4862945;29;20280;-73
2023/10/08 00:51:25;;;;;;;4.90;2.60;;;15.30;99.90;;;;;;4863190;29;20189;-74
2023/10/08 00:54:06;;;;;;;4.13;3.00;;;15.40;99.90;;;;;;4863201;29;20196;-75
2023/10/08 00:59:20;;;;;;;5.70;2.88;;;15.30;99.90;;;;;;4863170;29;20326;-75
2023/10/08 01:01:51;;;;;;;6.60;3.10;;;15.20;99.90;;;;;;4862985;29;20174;-74
2023/10/08 01:04:19;;;;;;;4.75;3.10;;;15.20;99.90;;;;;;4862900;29;20217;-74
2023/10/08 01:06:51;;;;;;;5.75;3.40;;;15.10;99.90;;;;;;4862765;29;20248;-74
2023/10/08 01:09:22;;;;;;;4.75;2.92;;;15.10;99.90;;;;;;4862733;29;20184;-74
2023/10/08 01:12:08;;;;;;;4.30;2.95;;;15.10;99.90;;;;;;4862723;29;20359;-74
2023/10/08 01:14:35;;;;;;;6.32;3.40;;;15.10;99.90;;;;;;4862856;29;20186;-74
2023/10/08 01:17:01;;;;;;;6.40;3.40;;;15.10;99.90;;;;;;4849549;29;20183;-74
2023/10/08 01:19:27;;;;;;;5.22;3.47;;;15.10;99.90;;;;;;4844241;29;20213;-74
2023/10/08 01:21:53;;;;;;;5.85;3.47;;;14.90;99.90;;;;;;4844069;29;20183;-74
2023/10/08 01:24:23;;;;;;;7.05;3.40;;;15.00;99.90;;;;;;4843899;29;20684;-74
2023/10/08 01:26:49;;;;;;;4.50;3.25;;;14.90;99.90;;;;;;4844101;29;20186;-74
2023/10/08 01:29:21;;;;;;;5.38;3.45;;;14.90;99.90;;;;;;4844160;29;20240;-73
2023/10/08 01:31:53;;;;;;;5.05;3.30;;;14.90;99.90;;;;;;4844024;29;20191;-74
2023/10/08 01:34:19;;;;;;;5.43;3.45;;;14.90;99.90;;;;;;4843856;29;20195;-74
2023/10/08 01:36:45;;;;;;;6.10;3.30;;;14.80;99.90;;;;;;4843747;29;20269;-74
2023/10/08 01:39:15;;;;;;;5.78;3.30;;;14.70;99.90;;;;;;4843612;29;20282;-74
2023/10/08 01:41:43;;;;;;;4.88;3.25;;;14.80;99.90;;;;;;4843897;29;20265;-74
2023/10/08 01:44:09;;;;;;;7.80;3.45;;;14.70;99.90;;;;;;4843811;29;20206;-74
2023/10/08 01:46:35;;;;;;;5.90;3.40;;;14.60;99.90;;;;;;4843618;29;20274;-73
2023/10/08 01:49:06;;;;;;;5.22;3.65;;;14.70;99.90;;;;;;4843519;29;20645;-74
2023/10/08 01:51:39;;;;;;;6.45;3.88;;;14.70;99.90;;;;;;4843167;29;20251;-73
2023/10/08 01:54:10;;;;;;;5.75;3.40;;;14.70;99.90;;;;;;4843657;29;20530;-74
2023/10/08 01:56:43;;;;;;;6.72;3.83;;;14.70;99.90;;;;;;4843556;29;20210;-74
2023/10/08 01:59:11;;;;;;;6.05;3.45;;;14.70;99.90;;;;;;4843545;29;20187;-74
2023/10/08 02:01:38;;;;;;;5.35;3.65;;;14.70;99.90;;;;;;4843294;29;20244;-75
2023/10/08 02:04:07;;;;;;;5.45;3.45;;;14.70;99.90;;;;;;4843181;29;20642;-74
2023/10/08 02:06:35;;;;;;;5.75;3.60;;;14.60;99.90;;;;;;4843140;29;20234;-74
2023/10/08 02:09:07;;;;;;;5.68;3.80;;;14.70;99.90;;;;;;4843284;29;20583;-74
2023/10/08 02:11:45;;;;;;;5.43;3.70;;;14.60;99.90;;;;;;4843306;29;20566;-73
2023/10/08 02:14:12;;;;;;;6.25;3.72;;;14.60;99.90;;;;;;4843101;29;20192;-73
2023/10/08 02:16:38;;;;;;;6.65;3.50;;;14.60;99.90;;;;;;4842953;29;20194;-74
2023/10/08 02:19:04;;;;;;;4.90;3.38;;;14.60;99.90;;;;;;4843151;29;20197;-74
2023/10/08 02:21:31;;;;;;;4.95;3.55;;;14.60;99.90;;;;;;4843156;29;20530;-74
2023/10/08 02:23:56;;;;;;;5.47;3.70;;;14.60;99.90;;;;;;4843007;29;20218;-74
2023/10/08 02:26:23;;;;;;;6.97;3.55;;;14.70;99.90;;;;;;4826684;29;20186;-74
2023/10/08 02:28:50;;;;;;;5.35;3.42;;;14.70;99.90;;;;;;4842837;29;20649;-74
2023/10/08 02:31:18;;;;;;;5.68;3.20;;;14.80;99.90;;;;;;4842806;29;20175;-74
2023/10/08 02:33:44;;;;;;;8.02;3.67;;;14.80;99.90;;;;;;4842963;29;20190;-71
2023/10/08 02:36:09;;;;;;;5.97;3.78;;;14.90;99.90;;;;;;4842920;29;20270;-74
2023/10/08 02:38:37;;;;;;;5.22;3.67;;;14.80;99.90;;;;;;4842835;29;20270;-74
2023/10/08 02:41:06;;;;;;;6.25;3.88;;;14.90;99.90;;;;;;4842691;29;20194;-74
2023/10/08 02:43:34;;;;;;;5.20;3.45;;;14.90;99.90;;;;;;4842551;29;20179;-71
2023/10/08 02:46:00;;;;;;;5.00;3.35;;;14.90;99.90;;;;;;4842810;29;20193;-74
2023/10/08 02:48:27;;;;;;;4.60;3.53;;;14.90;99.90;;;;;;4842776;29;20194;-74
2023/10/08 02:50:54;;;;;;;6.22;3.72;;;15.00;99.90;;;;;;4842745;29;20178;-74
2023/10/08 02:53:23;;;;;;;5.22;3.10;;;14.90;99.90;;;;;;4842672;29;20529;-72
2023/10/08 02:55:50;;;;;;;3.92;3.40;;;14.80;99.90;;;;;;4842568;29;20179;-74
2023/10/08 02:58:18;;;;;;;7.38;4.18;;;14.80;99.90;;;;;;4842510;29;20189;-74
2023/10/08 03:00:49;;;;;;;6.65;3.88;;;14.90;99.90;;;;;;4842637;29;20224;-74
2023/10/08 03:03:18;;;;;;;5.10;3.75;;;14.90;99.90;;;;;;4842363;29;20179;-74
2023/10/08 03:05:48;;;;;;;6.18;3.70;;;15.10;99.90;;;;;;4842170;29;20284;-70
2023/10/08 03:08:19;;;;;;;6.10;4.18;;;15.00;99.90;;;;;;4842473;29;20182;-74
2023/10/08 03:10:45;;;;;;;7.43;4.15;;;14.80;99.90;;;;;;4842395;29;20175;-74
2023/10/08 03:13:12;;;;;;;5.35;3.72;;;14.90;99.90;;;;;;4842651;29;20214;-74
2023/10/08 03:15:41;;;;;;;5.65;3.80;;;14.90;99.90;;;;;;4842280;29;20644;-75
2023/10/08 03:18:10;;;;;;;6.93;3.85;;;15.00;99.90;;;;;;4826136;29;20194;-74
2023/10/08 03:20:42;;;;;;;4.65;3.67;;;15.00;99.90;;;;;;4842449;29;20574;-74
2023/10/08 03:26:32;;;;;;;6.43;3.75;;;15.00;99.90;;;;;;4826170;29;20202;-75
2023/10/08 03:29:00;;;;;;;6.32;3.97;;;15.00;99.90;;;;;;4842347;29;20175;-74
2023/10/08 03:34:18;;;;;;;5.90;3.92;;;14.90;99.90;;;;;;4842306;29;20277;-74
2023/10/08 03:36:45;;;;;;;9.77;4.25;;;14.80;99.90;;;;;;4842397;29;20169;-74
2023/10/08 03:39:13;;;;;;;5.75;4.13;;;14.90;99.90;;;;;;4842406;29;20183;-75
2023/10/08 03:41:51;;;;;;;7.55;3.72;;;14.90;99.90;;;;;;4842108;29;20197;-74
2023/10/08 03:44:17;;;;;;;7.03;4.20;;;14.90;99.90;;;;;;4842011;29;20210;-74
2023/10/08 03:46:43;;;;;;;6.68;4.00;;;14.80;99.90;;;;;;4842295;29;20186;-75
2023/10/08 03:51:51;;;;;;;5.53;3.88;;;14.80;99.90;;;;;;4842251;29;20767;-74
2023/10/08 03:54:18;;;;;;;7.50;4.03;;;14.90;99.90;;;;;;4842112;29;20262;-73
2023/10/08 03:56:46;;;;;;;6.72;3.75;;;14.80;99.90;;;;;;4841985;29;20190;-73
2023/10/08 03:59:13;;;;;;;6.18;4.30;;;14.80;99.90;;;;;;4842223;29;20175;-74
2023/10/08 04:01:42;;;;;;;7.47;4.55;;;14.80;99.90;;;;;;4842065;29;20324;-74
2023/10/08 04:04:13;;;;;;;7.32;4.55;;;14.90;99.90;;;;;;4842017;29;20293;-73
2023/10/08 04:06:47;;;;;;;7.03;3.90;;;14.70;99.90;;;;;;4841851;29;20250;-74
2023/10/08 04:14:16;;;;;;;5.10;4.03;;;14.60;99.90;;;;;;4842049;29;20251;-74
2023/10/08 04:16:42;;;;;;;6.35;4.00;;;14.50;99.90;;;;;;4844977;29;20198;-74
2023/10/08 04:19:09;;;;;;;6.68;3.95;;;14.50;99.90;;;;;;4845137;29;20239;-72
2023/10/08 04:21:34;;;;;;;10.15;4.40;;;14.50;99.90;;;;;;4844995;29;20187;-73
2023/10/08 04:24:04;;;;;;;7.68;3.90;;;14.50;99.90;;;;;;4844954;29;20226;-74
2023/10/08 04:26:31;;;;;;;6.13;4.13;;;14.50;99.90;;;;;;4845168;29;20648;-74
2023/10/08 04:28:58;;;;;;;6.22;4.22;;;14.40;99.90;;;;;;4845001;29;20201;-74
2023/10/08 04:31:27;;;;;;;5.90;4.25;;;14.40;99.90;;;;;;4845024;29;20187;-74
2023/10/08 04:33:54;;;;;;;7.45;4.40;;;14.40;99.90;;;;;;4844815;29;20186;-74
2023/10/08 04:36:20;;;;;;;6.03;4.13;;;14.40;99.90;;;;;;4844680;29;20664;-73
2023/10/08 04:38:54;;;;;;;7.90;4.57;;;14.40;99.90;;;;;;4844962;29;20193;-74
2023/10/08 04:41:19;;;;;;;7.18;4.70;;;14.30;99.90;;;;;;4844859;29;20232;-70
2023/10/08 04:43:45;;;;;;;6.93;4.75;;;14.30;99.90;;;;;;4844888;29;20194;-73
2023/10/08 04:46:24;;;;;;;5.28;4.75;;;14.30;99.90;;;;;;4845024;29;20177;-74
2023/10/08 04:48:51;;;;;;;8.25;4.55;;;14.30;99.90;;;;;;4844553;29;20183;-74
2023/10/08 04:51:18;;;;;;;6.95;4.70;;;14.30;99.90;;;;;;4844806;29;20199;-74
2023/10/08 04:53:45;;;;;;;5.65;4.43;;;14.20;99.90;;;;;;4844638;29;20192;-70
2023/10/08 04:56:17;;;;;;;6.75;4.60;;;14.20;99.90;;;;;;4844629;29;20189;-74
2023/10/08 04:58:47;;;;;;;7.85;4.30;;;14.20;99.90;;;;;;4844468;29;20187;-68
2023/10/08 05:01:17;;;;;;;4.50;4.05;;;14.20;99.90;;;;;;4844432;29;20183;-74
2023/10/08 05:09:12;;;;;;;4.55;3.88;;;14.20;99.90;;;;;;4844287;29;20191;-74
2023/10/08 05:11:56;;;;;;;6.28;4.28;;;14.20;99.90;;;;;;4844228;29;20207;-74
2023/10/08 05:17:09;;;;;;;6.63;4.55;;;14.20;99.90;;;;;;4844305;29;20194;-74
2023/10/08 05:23:15;;;;;;;6.78;4.72;;;14.20;99.90;;;;;;4828160;29;20205;-74
2023/10/08 05:30:28;;;;;;;7.03;4.72;;;14.20;99.90;;;;;;4843984;29;20238;-74
2023/10/08 06:02:48;;;;;;;6.57;4.75;;;14.10;99.90;;;;;;4842764;29;20211;-73
2023/10/08 06:13:13;;;;;;;9.25;5.10;;;14.20;99.90;;;;;;4832868;29;20247;-73
2023/10/08 06:18:25;;;;;;;10.48;5.18;;;14.20;99.90;;;;;;4824968;29;20191;-74
2023/10/08 06:21:11;;;;;;;6.03;5.20;;;14.20;99.90;;;;;;4825092;29;20256;-73
2023/10/08 06:23:41;;;;;;;8.57;5.80;;;14.20;99.90;;;;;;4846709;29;20198;-73
2023/10/08 06:28:38;;;;;;;7.85;5.32;;;14.40;99.90;;;;;;4861155;29;20541;-72
2023/10/08 06:31:24;;;;;;;8.57;4.82;;;14.50;99.90;;;;;;4860904;29;20703;-72
2023/10/08 06:33:50;;;;;;;6.97;5.00;;;14.50;99.90;;;;;;4861267;29;20620;-73
2023/10/08 06:36:16;;;;;;;12.23;7.10;;;14.50;99.90;;;;;;4861242;29;20201;-72
2023/10/08 06:38:49;;;;;;;8.50;5.45;;;14.60;99.90;;;;;;4860749;29;20194;-72
2023/10/08 06:41:19;;;;;;;8.55;5.50;;;14.60;99.90;;;;;;4860959;29;20273;-73
2023/10/08 06:43:49;;;;;;;7.47;5.18;;;14.60;99.90;;;;;;4860882;29;20178;-72
2023/10/08 06:46:21;;;;;;;6.50;4.57;;;14.70;99.90;;;;;;4860894;29;20655;-72
2023/10/08 06:48:49;;;;;;;7.68;4.82;;;14.70;99.90;;;;;;4861064;29;20181;-72
2023/10/08 06:51:17;;;;;;;6.85;4.78;;;14.80;99.90;;;;;;4860800;29;20264;-72
2023/10/08 06:53:48;;;;;;;8.52;5.13;;;14.80;99.90;;;;;;4860881;29;20604;-73
2023/10/08 06:56:19;;;;;;;6.22;4.57;;;14.80;99.90;;;;;;4860743;29;20181;-74
2023/10/08 06:58:52;;;;;;;7.43;5.38;;;14.80;99.90;;;;;;4860959;29;20186;-73
2023/10/08 07:01:21;;;;;;;7.03;4.88;;;14.90;99.90;;;;;;4860653;29;20182;-73
2023/10/08 07:03:50;;;;;;;8.65;4.85;;;15.00;99.90;;;;;;4860392;29;20640;-73
2023/10/08 07:06:16;;;;;;;7.47;5.00;;;15.00;99.90;;;;;;4859711;29;20294;-72
2023/10/08 07:08:46;;;;;;;7.03;5.18;;;15.00;99.90;;;;;;4860098;29;20174;-72
2023/10/08 07:11:13;;;;;;;5.70;4.40;;;15.00;99.90;;;;;;4860779;29;20193;-73
2023/10/08 07:13:42;;;;;;;7.50;4.55;;;15.10;99.90;;;;;;4860888;29;20190;-67
2023/10/08 07:16:11;;;;;;;8.13;4.85;;;15.20;99.90;;;;;;4860747;29;20190;-73
2023/10/08 07:18:41;;;;;;;8.75;4.88;;;15.30;99.90;;;;;;4844788;29;20636;-74
2023/10/08 07:21:13;;;;;;;7.30;4.43;;;15.30;99.90;;;;;;4844144;29;20205;-73
2023/10/08 07:23:59;;;;;;;6.95;4.85;;;15.40;99.90;;;;;;4860654;29;20241;-73
2023/10/08 07:26:40;;;;;;;7.30;5.07;;;15.50;99.90;;;;;;4860814;29;20189;-73
2023/10/08 07:29:09;;;;;;;8.05;5.00;;;15.50;99.90;;;;;;4860493;29;20182;-73
2023/10/08 07:31:41;;;;;;;9.30;4.93;;;15.60;99.90;;;;;;4860311;29;20193;-73
2023/10/08 07:34:25;;;;;;;8.18;5.60;;;15.60;99.90;;;;;;4860740;29;20214;-72
2023/10/08 07:36:54;;;;;;;8.57;4.75;;;15.70;99.90;;;;;;4856502;29;20678;-73
2023/10/08 07:39:26;;;;;;;7.15;4.78;;;15.70;99.90;;;;;;4860449;29;20186;-74
2023/10/08 07:41:53;;;;;;;9.38;5.40;;;15.80;99.90;;;;;;4860132;29;20197;-73
2023/10/08 07:44:36;;;;;;;9.13;5.35;;;15.70;99.90;;;;;;4860668;29;20265;-74
2023/10/08 07:47:04;;;;;;;7.82;5.50;;;15.70;99.90;;;;;;4851717;29;20174;-73
2023/10/08 07:49:31;;;;;;;9.68;6.07;;;15.70;99.90;;;;;;4841914;29;20211;-74
2023/10/08 07:51:59;;;;;;;7.65;4.95;;;15.80;99.90;;;;;;4852659;29;20186;-73
2023/10/08 07:54:29;;;;;;;9.05;5.25;;;15.80;99.90;;;;;;4863777;29;20199;-71
2023/10/08 07:57:12;;;;;;;6.15;4.65;;;15.90;99.90;;;;;;4864110;29;20539;-73
2023/10/08 07:59:44;;;;;;;8.23;5.80;;;16.00;99.90;;;;;;4863739;29;20209;-73
2023/10/08 08:02:11;;;;;;;7.20;5.28;;;15.90;99.90;;;;;;4863731;29;20517;-73
2023/10/08 08:04:43;;;;;;;9.15;6.05;;;16.00;99.90;;;;;;4863431;29;20352;-73
2023/10/08 08:07:15;;;;;;;8.52;5.60;;;16.20;99.90;;;;;;4863626;29;20230;-74
2023/10/08 08:09:48;;;;;;;8.15;5.88;;;16.10;99.90;;;;;;4863624;29;20272;-72
2023/10/08 08:12:13;;;;;;;9.38;5.60;;;16.20;99.90;;;;;;4863737;29;20185;-74
2023/10/08 08:14:41;;;;;;;7.40;5.63;;;16.30;99.90;;;;;;4863668;29;20186;-73
2023/10/08 08:17:13;;;;;;;9.95;5.78;;;16.30;99.90;;;;;;4863543;29;20306;-72
2023/10/08 08:19:50;;;;;;;9.20;5.53;;;16.30;99.90;;;;;;4826414;29;20664;-73
2023/10/08 08:22:21;;;;;;;10.38;6.78;;;16.40;99.90;;;;;;4826369;29;20214;-73
2023/10/08 08:24:56;;;;;;;10.30;6.10;;;16.50;99.90;;;;;;4826454;29;20259;-73
2023/10/08 08:27:24;;;;;;;9.07;5.25;;;16.60;99.90;;;;;;4852737;29;20719;-73
2023/10/08 08:29:56;;;;;;;7.38;5.05;;;16.70;99.90;;;;;;4863373;29;20182;-71
2023/10/08 08:32:24;;;;;;;10.13;6.40;;;16.80;99.90;;;;;;4863619;29;20182;-74
2023/10/08 08:34:50;;;;;;;10.35;6.15;;;16.90;99.90;;;;;;4863577;29;20225;-72
2023/10/08 08:37:22;;;;;;;9.40;6.45;;;16.90;99.90;;;;;;4863372;29;20644;-73
2023/10/08 08:39:48;;;;;;;9.38;5.82;;;17.10;99.90;;;;;;4863265;29;20194;-68
2023/10/08 08:42:14;;;;;;;12.07;7.15;;;17.10;99.90;;;;;;4863377;29;20178;-67
2023/10/08 08:44:48;;;;;;;9.35;6.00;;;17.20;99.90;;;;;;4863015;29;20258;-66
2023/10/08 08:47:17;;;;;;;11.40;6.25;;;17.30;99.90;;;;;;4863316;29;20194;-67
2023/10/08 08:49:47;;;;;;;11.25;6.07;;;17.30;99.90;;;;;;4863223;29;20182;-67
2023/10/08 08:52:14;;;;;;;8.88;6.55;;;17.30;99.90;;;;;;4863080;29;20289;-67
2023/10/08 08:54:41;;;;;;;8.48;6.15;;;17.30;99.90;;;;;;4862974;29;20215;-64
2023/10/08 08:57:13;;;;;;;10.77;6.78;;;17.40;99.90;;;;;;4862914;29;20178;-67
2023/10/08 08:59:54;;;;;;;10.32;6.00;;;17.30;99.90;;;;;;4863082;29;20209;-68
2023/10/08 09:02:20;;;;;;;11.43;6.63;;;17.40;99.90;;;;;;4861904;29;20643;-67
2023/10/08 09:04:48;;;;;;;9.13;7.20;;;17.50;99.90;;;;;;4862803;29;20231;-67
2023/10/08 09:07:14;;;;;;;9.38;6.60;;;17.60;99.90;;;;;;4862835;29;20239;-67
2023/10/08 09:09:40;;;;;;;9.48;6.22;;;17.60;99.90;;;;;;4862718;29;20178;-67
2023/10/08 09:12:09;;;;;;;10.65;7.38;;;17.70;99.90;;;;;;4862927;29;20226;-67
2023/10/08 09:14:36;;;;;;;10.02;6.82;;;17.60;99.90;;;;;;4863024;29;20198;-67
2023/10/08 09:17:04;;;;;;;12.80;7.45;;;17.70;99.90;;;;;;4862687;29;20186;-67
2023/10/08 09:19:36;;;;;;;11.63;6.43;;;17.70;99.90;;;;;;4862575;29;20542;-67
2023/10/08 09:22:15;;;;;;;11.30;6.53;;;18.00;99.90;;;;;;4862525;29;20734;-67
2023/10/08 09:24:42;;;;;;;11.38;7.13;;;18.10;99.90;;;;;;4862564;29;20214;-67
2023/10/08 09:27:14;;;;;;;13.25;7.40;;;18.10;99.90;;;;;;4862523;29;20189;-67
2023/10/08 09:29:40;;;;;;;11.75;6.45;;;18.20;99.90;;;;;;4862627;29;20185;-64
2023/10/08 09:32:09;;;;;;;13.68;7.57;;;18.30;99.90;;;;;;4862377;29;20178;-68
2023/10/08 09:34:34;;;;;;;13.13;7.80;;;18.40;99.90;;;;;;4862262;29;20216;-64
2023/10/08 09:37:01;;;;;;;10.32;6.53;;;18.60;99.90;;;;;;4862278;29;20334;-64
2023/10/08 09:39:36;;;;;;;12.30;6.90;;;18.70;99.90;;;;;;4862235;29;20184;-68
2023/10/08 09:42:06;;;;;;;10.48;7.00;;;18.80;99.90;;;;;;4862342;29;20188;-69
2023/10/08 09:44:32;;;;;;;8.75;6.40;;;18.80;99.90;;;;;;4862116;29;20553;-68
2023/10/08 09:47:06;;;;;;;13.80;7.63;;;18.90;99.90;;;;;;4861991;29;20200;-68
2023/10/08 09:49:38;;;;;;;15.38;7.47;;;19.10;99.90;;;;;;4862260;29;20174;-68
2023/10/08 09:52:06;;;;;;;15.80;7.07;;;19.10;99.90;;;;;;4862146;29;20185;-68
2023/10/08 09:54:49;;;;;;;14.68;8.38;;;19.30;99.90;;;;;;4861990;29;20182;-68
2023/10/08 09:57:19;;;;;;;12.68;7.25;;;19.40;99.90;;;;;;4861987;29;20281;-68
2023/10/08 09:59:46;;;;;;;10.75;6.63;;;19.30;99.90;;;;;;4861685;29;20178;-68
2023/10/08 10:02:12;;;;;;;11.50;7.40;;;19.30;99.90;;;;;;4861978;29;20182;-68
2023/10/08 10:04:45;;;;;;;12.98;8.40;;;19.30;99.90;;;;;;4861572;29;20212;-68
2023/10/08 10:07:16;;;;;;;13.48;8.35;;;19.40;99.90;;;;;;4861858;29;20189;-69
2023/10/08 10:09:48;;;;;;;12.35;7.00;;;19.40;99.90;;;;;;4861712;29;20178;-68
2023/10/08 10:12:19;;;;;;;13.63;7.65;;;19.50;99.90;;;;;;4861561;29;20265;-69
2023/10/08 10:14:46;;;;;;;13.63;7.57;;;19.60;99.90;;;;;;4861620;29;20712;-68
2023/10/08 10:17:20;;;;;;;11.63;7.57;;;19.50;99.90;;;;;;4861750;29;20174;-69
2023/10/08 10:19:56;;;;;;;13.23;7.60;;;19.60;99.90;;;;;;4861582;29;20261;-69
2023/10/08 10:22:33;;;;;;;12.95;6.97;;;19.60;99.90;;;;;;4861592;29;20197;-69
2023/10/08 10:25:03;;;;;;;13.93;8.30;;;19.80;99.90;;;;;;4861461;29;20304;-69
2023/10/08 10:27:29;;;;;;;13.88;7.20;;;19.70;99.90;;;;;;4861592;29;20186;-69
2023/10/08 10:30:08;;;;;;;14.10;8.20;;;19.80;99.90;;;;;;4861353;29;20673;-69
2023/10/08 10:32:35;;;;;;;12.02;7.68;;;20.10;99.90;;;;;;4861431;29;20268;-66
2023/10/08 10:35:05;;;;;;;13.15;7.05;;;20.10;99.90;;;;;;4861092;29;20209;-68
2023/10/08 10:37:40;;;;;;;11.63;7.15;;;20.10;99.90;;;;;;4861430;29;20501;-69
2023/10/08 10:40:12;;;;;;;10.95;7.22;;;20.10;99.90;;;;;;4861335;29;20184;-68
2023/10/08 10:42:42;;;;;;;12.38;7.05;;;20.20;99.90;;;;;;4861410;29;20592;-68
2023/10/08 10:45:40;;;;;;;13.55;7.00;;;20.30;99.90;;;;;;4861332;29;20560;-68
2023/10/08 10:53:56;;;;;;;12.60;7.70;;;20.50;99.90;;;;;;4861135;29;20198;-67
2023/10/08 10:56:29;;;;;;;12.35;7.18;;;20.40;99.90;;;;;;4861252;29;20193;-68
2023/10/08 10:58:59;;;;;;;12.20;6.82;;;20.50;99.90;;;;;;4861314;29;20186;-68
2023/10/08 11:01:29;;;;;;;11.93;6.68;;;20.60;99.90;;;;;;4861282;29;20174;-68
2023/10/08 11:03:57;;;;;;;12.73;7.05;;;20.70;99.90;;;;;;4860857;29;20186;-68
2023/10/08 11:06:25;;;;;;;13.05;6.93;;;20.70;99.90;;;;;;4861150;29;20236;-68
2023/10/08 11:08:52;;;;;;;12.98;7.40;;;20.60;99.90;;;;;;4861365;29;20659;-68
2023/10/08 11:11:19;;;;;;;14.35;6.93;;;20.80;99.90;;;;;;4860997;29;20196;-67
2023/10/08 11:13:51;;;;;;;15.73;7.43;;;20.80;99.90;;;;;;4844464;29;20269;-68
2023/10/08 11:16:21;;;;;;;15.27;6.97;;;20.90;99.90;;;;;;4861135;29;20170;-67
2023/10/08 11:18:50;;;;;;;11.45;6.60;;;21.10;99.90;;;;;;4860967;29;20191;-68
2023/10/08 11:21:17;;;;;;;12.77;6.50;;;21.00;99.90;;;;;;4860915;29;20664;-66
2023/10/08 11:23:55;;;;;;;9.48;6.30;;;21.10;99.90;;;;;;4860989;29;20185;-68
2023/10/08 11:26:31;;;;;;;14.48;6.70;;;21.10;99.90;;;;;;4863538;29;20596;-68
2023/10/08 11:29:02;;;;;;;8.32;5.63;;;21.20;99.90;;;;;;4864827;29;20185;-68
2023/10/08 11:31:29;;;;;;;13.02;6.90;;;21.20;99.90;;;;;;4864423;29;20186;-67
2023/10/08 11:34:08;;;;;;;12.25;6.10;;;21.20;99.90;;;;;;4864629;29;20652;-68
2023/10/08 11:36:48;;;;;;;11.18;6.30;;;21.30;99.90;;;;;;4864430;29;20182;-68
2023/10/08 11:39:21;;;;;;;8.05;5.97;;;21.40;99.90;;;;;;4864454;29;20178;-68
2023/10/08 11:42:25;;;;;;;11.38;5.90;;;21.50;99.90;;;;;;4864530;29;20186;-68
2023/10/08 11:44:46;;;;;;;14.18;6.30;;;21.50;99.90;;;;;;4863073;29;20305;-68
2023/10/08 11:47:13;;;;;;;8.85;5.32;;;21.50;99.90;;;;;;4864178;29;20533;-68
2023/10/08 11:49:47;;;;;;;9.15;5.63;;;21.40;99.90;;;;;;4863939;29;20596;-64
2023/10/08 11:52:15;;;;;;;10.05;5.90;;;21.50;99.90;;;;;;4864102;29;20185;-68
2023/10/08 11:54:44;;;;;;;9.48;5.65;;;21.60;99.90;;;;;;4863960;29;20644;-69
2023/10/08 11:57:11;;;;;;;12.48;5.60;;;21.70;99.90;;;;;;4864433;29;20323;-68
2023/10/08 11:59:39;;;;;;;12.38;5.75;;;21.70;99.90;;;;;;4864175;29;20183;-68
2023/10/08 12:02:06;;;;;;;9.00;5.65;;;21.70;99.90;;;;;;4864130;29;20618;-68
2023/10/08 12:04:32;;;;;;;10.05;5.43;;;21.80;99.90;;;;;;4863762;29;20258;-68
2023/10/08 12:07:01;;;;;;;9.52;5.43;;;21.80;99.90;;;;;;4863869;29;20194;-68
2023/10/08 12:09:27;;;;;;;9.75;5.22;;;21.80;99.90;;;;;;4864046;29;20294;-65
2023/10/08 12:11:53;;;;;;;11.35;5.97;;;21.80;99.90;;;;;;4863734;29;20676;-69
2023/10/08 12:14:19;;;;;;;8.35;5.05;;;21.80;99.90;;;;;;4863907;29;20193;-69
2023/10/08 12:16:45;;;;;;;9.20;5.68;;;21.90;99.90;;;;;;4863756;29;20182;-68
2023/10/08 12:19:17;;;;;;;11.25;5.88;;;22.00;99.90;;;;;;4863796;29;20194;-69
2023/10/08 12:21:47;;;;;;;8.85;5.00;;;22.10;99.90;;;;;;4863592;29;20193;-68
2023/10/08 12:24:13;;;;;;;9.52;6.03;;;22.00;99.90;;;;;;4863461;29;20250;-69
2023/10/08 12:26:45;;;;;;;10.70;6.35;;;21.90;99.90;;;;;;4847304;29;20616;-66
2023/10/08 12:29:16;;;;;;;10.07;5.30;;;21.90;99.90;;;;;;4863592;29;20182;-69
2023/10/08 12:31:47;;;;;;;10.43;5.57;;;22.00;99.90;;;;;;4863417;29;20192;-69
2023/10/08 12:34:16;;;;;;;9.48;5.03;;;22.00;99.90;;;;;;4863340;29;20536;-68
2023/10/08 12:36:42;;;;;;;9.57;5.25;;;21.90;99.90;;;;;;4863224;29;20182;-69
2023/10/08 12:39:14;;;;;;;10.30;5.85;;;22.00;99.90;;;;;;4863462;29;20193;-69
2023/10/08 12:41:43;;;;;;;8.60;5.75;;;21.90;99.90;;;;;;4863288;29;20185;-68
2023/10/08 12:44:10;;;;;;;10.98;5.68;;;21.90;99.90;;;;;;4863194;29;20214;-69
2023/10/08 12:46:36;;;;;;;9.10;5.15;;;21.90;99.90;;;;;;4863113;29;20210;-69
2023/10/08 12:49:02;;;;;;;11.60;5.75;;;21.80;99.90;;;;;;4863347;29;20252;-69
2023/10/08 12:51:32;;;;;;;11.02;5.50;;;21.80;99.90;;;;;;4863030;29;20640;-68
2023/10/08 12:54:03;;;;;;;9.35;4.80;;;21.80;99.90;;;;;;4863183;29;20537;-69
2023/10/08 12:56:38;;;;;;;10.95;5.50;;;21.90;99.90;;;;;;4862950;29;20182;-69
2023/10/08 12:59:07;;;;;;;11.57;5.80;;;22.00;99.90;;;;;;4862813;29;20276;-67
2023/10/08 13:01:35;;;;;;;9.25;5.07;;;21.90;99.90;;;;;;4863064;29;20186;-69
2023/10/08 13:04:06;;;;;;;10.82;5.60;;;22.00;99.90;;;;;;4862982;29;20182;-69
2023/10/08 13:06:36;;;;;;;11.20;5.65;;;22.00;99.90;;;;;;4862813;29;20258;-69
2023/10/08 13:09:09;;;;;;;10.10;5.88;;;22.00;99.90;;;;;;4862868;29;20549;-70
2023/10/08 13:11:34;;;;;;;12.52;5.15;;;22.00;99.90;;;;;;4862659;29;20182;-69
2023/10/08 13:14:00;;;;;;;8.30;5.00;;;22.00;99.90;;;;;;4862810;29;20185;-69
2023/10/08 13:16:31;;;;;;;9.38;5.00;;;21.80;99.90;;;;;;4862647;29;20186;-69
2023/10/08 13:18:58;;;;;;;13.45;6.15;;;21.80;99.90;;;;;;4862702;29;20257;-69
2023/10/08 13:21:24;;;;;;;9.40;5.10;;;21.80;99.90;;;;;;4862574;29;20209;-69
2023/10/08 13:23:56;;;;;;;7.88;4.97;;;21.70;99.90;;;;;;4862357;29;20665;-69
2023/10/08 13:26:22;;;;;;;6.85;4.82;;;21.70;99.90;;;;;;4862489;29;20174;-69
2023/10/08 13:28:48;;;;;;;12.18;5.50;;;21.70;99.90;;;;;;4862620;29;20272;-70
2023/10/08 13:31:16;;;;;;;9.70;5.72;;;21.80;99.90;;;;;;4862543;29;20268;-69
2023/10/08 13:33:44;;;;;;;9.57;5.22;;;21.70;99.90;;;;;;4862400;29;20178;-69
2023/10/08 13:36:11;;;;;;;10.00;5.40;;;21.80;99.90;;;;;;4862347;29;20182;-70
2023/10/08 13:38:37;;;;;;;8.18;5.15;;;21.80;99.90;;;;;;4862121;29;20189;-69
2023/10/08 13:41:17;;;;;;;8.25;5.03;;;21.70;99.90;;;;;;4862389;29;20178;-70
2023/10/08 13:43:45;;;;;;;10.73;5.25;;;21.70;99.90;;;;;;4862523;29;20202;-69
2023/10/08 13:46:13;;;;;;;8.48;5.55;;;21.80;99.90;;;;;;4862062;29;20577;-69
2023/10/08 13:48:40;;;;;;;12.70;5.95;;;21.90;99.90;;;;;;4861371;29;20173;-70
2023/10/08 13:51:13;;;;;;;7.40;4.82;;;21.90;99.90;;;;;;4845355;29;20186;-69
2023/10/08 13:53:52;;;;;;;8.73;5.00;;;21.90;99.90;;;;;;4862116;29;20209;-69
2023/10/08 13:56:19;;;;;;;9.13;5.65;;;22.00;99.90;;;;;;4862019;29;20216;-69
2023/10/08 13:58:46;;;;;;;12.02;5.65;;;21.90;99.90;;;;;;4861122;29;20201;-69
2023/10/08 14:01:19;;;;;;;7.75;4.85;;;21.90;99.90;;;;;;4861823;29;20225;-70
2023/10/08 14:03:48;;;;;;;7.97;4.95;;;21.90;99.90;;;;;;4861742;29;20182;-69
2023/10/08 14:06:16;;;;;;;7.53;4.80;;;22.00;99.90;;;;;;4861430;29;20241;-70
2023/10/08 14:08:44;;;;;;;10.13;4.97;;;21.90;99.90;;;;;;4845392;29;20193;-69
2023/10/08 14:11:12;;;;;;;9.82;5.43;;;21.90;99.90;;;;;;4861768;29;20682;-69
2023/10/08 14:13:41;;;;;;;9.13;5.10;;;21.90;99.90;;;;;;4861826;29;20178;-69
2023/10/08 14:16:10;;;;;;;7.82;4.82;;;21.80;99.90;;;;;;4861457;29;20533;-69
2023/10/08 14:18:40;;;;;;;10.55;4.88;;;21.90;99.90;;;;;;4861662;29;20273;-70
2023/10/08 14:21:10;;;;;;;9.85;5.63;;;21.90;99.90;;;;;;4861625;29;20182;-69